NCAR-RAP Real-Time Weather Data

Output produced by METARs form (08 May 2021  00:42 UTC)
found at http://weather.rap.ucar.edu/surface/
 
KBRL 072353Z AUTO 33006G18KT 10SM CLR 17/M02 A3001 RMK AO2 SLP162 T01671022 10189 20167 58004
KBRL 072253Z AUTO 32008G23KT 10SM CLR 18/M03 A3001 RMK AO2 SLP163 T01781028
KBRL 072153Z AUTO 33009G26KT 10SM CLR 18/M01 A3002 RMK AO2 PK WND 35027/2113 SLP165 T01781011
KBRL 072053Z AUTO 31008G25KT 8SM CLR 18/M02 A3002 RMK AO2 PK WND 34026/2003 SLP166 T01781022 56008
KBRL 072008Z AUTO 32013G26KT 9SM FEW002 18/M02 A3003 RMK AO2 PK WND 34026/2003 T01781017
KBRL 071953Z AUTO 33014G25KT 10SM CLR 18/M02 A3003 RMK AO2 PK WND 33030/1925 SLP168 T01781017
KBRL 071853Z AUTO 30015G24KT 10SM CLR 18/01 A3003 RMK AO2 SLP169 T01830006
KBRL 071753Z AUTO 34015G22KT 10SM CLR 17/02 A3004 RMK AO2 SLP174 T01720022 10178 20061 50005
KBRL 071700Z AUTO 33016G25KT 9SM FEW004 17/03 A3005 RMK AO2 T01720028
KBRL 071653Z AUTO 30010G23KT 10SM CLR 17/03 A3005 RMK AO2 SLP175 T01720028
KBRL 071553Z AUTO 28011G22KT 9SM CLR 16/03 A3004 RMK AO2 SLP174 T01560033
KBRL 071453Z AUTO 29014G21KT 10SM FEW110 14/04 A3003 RMK AO2 SLP168 T01440044 56006
KBRL 071353Z AUTO 28011G19KT 10SM BKN120 12/03 A3003 RMK AO2 SLP170 T01220033
KBRL 071253Z AUTO 24006KT 10SM BKN100 BKN120 08/03 A3004 RMK AO2 SLP173 T00830033
KBRL 071153Z AUTO 22005KT 9SM FEW090 SCT110 06/03 A3005 RMK AO2 SLP176 7//// T00560028 10083 20039 58001
KBRL 071053Z AUTO 20003KT 10SM FEW090 05/02 A3005 RMK AO2 SLP177 T00500017
KBRL 070953Z AUTO 28003KT 10SM FEW090 SCT120 06/02 A3006 RMK AO2 SLP178 T00610017